Time;durP1;ratioP1;P1;durP2;ratioP2;P2;SDS_P1;SDS_P2;PMS_P1;PMS_P2;Temp;Humidity;BMP_temperature;BMP_pressure;BME280_temperature;BME280_humidity;BME280_pressure;Samples;Min_cycle;Max_cycle;Signal;HPM_P1;HPM_P2
2023/12/23 00:00:08;;;;;;;;;;;18.20;64.90;;;;;;5056261;28;1541;-69
2023/12/23 00:02:34;;;;;;;;;;;18.20;64.90;;;;;;5057671;28;1902;-69
2023/12/23 00:05:02;;;;;;;;;;;18.20;64.90;;;;;;5057976;28;1939;-71
2023/12/23 00:07:27;;;;;;;;;;;18.20;65.00;;;;;;5061790;28;1602;-69
2023/12/23 00:09:52;;;;;;;;;;;18.20;65.00;;;;;;5061305;28;1373;-69
2023/12/23 00:12:18;;;;;;;;;;;18.20;65.00;;;;;;5059026;28;1165;-69
2023/12/23 00:14:43;;;;;;;;;;;18.20;65.70;;;;;;5059536;28;1384;-70
2023/12/23 00:17:09;;;;;;;;;;;18.20;65.00;;;;;;5061020;28;1307;-70
2023/12/23 00:19:34;;;;;;;;;;;18.20;65.00;;;;;;5059299;28;1214;-70
2023/12/23 00:22:00;;;;;;;;;;;18.20;65.00;;;;;;5091063;28;1985;-70
2023/12/23 00:24:26;;;;;;;;;;;18.10;65.00;;;;;;5090686;28;1274;-70
2023/12/23 00:26:53;;;;;;;;;;;18.20;65.00;;;;;;5062841;28;1333;-70
2023/12/23 00:29:18;;;;;;;;;;;18.20;65.00;;;;;;5058097;28;1729;-70
2023/12/23 00:31:44;;;;;;;;;;;18.20;65.10;;;;;;5058946;28;1513;-69
2023/12/23 00:34:09;;;;;;;;;;;18.20;65.10;;;;;;5060452;28;1464;-70
2023/12/23 00:36:34;;;;;;;;;;;18.20;65.10;;;;;;5059491;28;1267;-69
2023/12/23 00:39:00;;;;;;;;;;;18.10;65.00;;;;;;5055724;28;1173;-69
2023/12/23 00:41:25;;;;;;;;;;;18.10;65.00;;;;;;5059928;28;1378;-69
2023/12/23 00:43:51;;;;;;;;;;;18.10;65.00;;;;;;5063418;28;1901;-70
2023/12/23 00:46:16;;;;;;;;;;;18.10;65.10;;;;;;5091204;28;1249;-69
2023/12/23 00:48:42;;;;;;;;;;;18.10;65.10;;;;;;5057204;28;1484;-70
2023/12/23 00:51:08;;;;;;;;;;;18.10;65.10;;;;;;5061472;28;1393;-69
2023/12/23 00:53:33;;;;;;;;;;;18.10;65.10;;;;;;5055185;28;1204;-69
2023/12/23 00:55:59;;;;;;;;;;;18.10;65.10;;;;;;5062096;28;1376;-70
2023/12/23 00:58:24;;;;;;;;;;;18.10;65.10;;;;;;5062441;28;1167;-69
2023/12/23 01:00:50;;;;;;;;;;;18.10;65.10;;;;;;5063312;28;1359;-69
2023/12/23 01:03:15;;;;;;;;;;;18.10;65.10;;;;;;5064299;28;1898;-69
2023/12/23 01:05:41;;;;;;;;;;;18.10;65.10;;;;;;5061912;28;1257;-70
2023/12/23 01:08:06;;;;;;;;;;;18.10;65.10;;;;;;5064148;28;1420;-69
2023/12/23 01:10:32;;;;;;;;;;;18.10;65.10;;;;;;5065650;28;1312;-69
2023/12/23 01:12:57;;;;;;;;;;;18.10;65.10;;;;;;5062376;28;1363;-69
2023/12/23 01:15:23;;;;;;;;;;;18.10;65.20;;;;;;5062366;28;891;-70
2023/12/23 01:17:48;;;;;;;;;;;18.10;65.10;;;;;;5062659;28;1248;-70
2023/12/23 01:20:14;;;;;;;;;;;18.10;65.20;;;;;;5062662;28;1430;-70
2023/12/23 01:22:39;;;;;;;;;;;18.10;65.20;;;;;;5062046;28;2020;-69
2023/12/23 01:25:05;;;;;;;;;;;18.10;65.20;;;;;;5061190;28;1247;-70
2023/12/23 01:27:30;;;;;;;;;;;18.10;65.20;;;;;;5064923;28;1290;-69
2023/12/23 01:29:55;;;;;;;;;;;18.10;65.20;;;;;;5061552;28;1347;-70
2023/12/23 01:32:21;;;;;;;;;;;18.10;65.20;;;;;;5062154;28;1302;-70
2023/12/23 01:34:47;;;;;;;;;;;18.10;65.20;;;;;;5062242;28;1254;-70
2023/12/23 01:37:12;;;;;;;;;;;18.10;65.20;;;;;;5077329;28;1301;-70
2023/12/23 01:39:38;;;;;;;;;;;18.10;65.20;;;;;;5060898;28;1774;-70
2023/12/23 01:42:03;;;;;;;;;;;18.10;65.20;;;;;;5061455;28;1902;-70
2023/12/23 01:44:29;;;;;;;;;;;18.10;65.20;;;;;;5061386;28;1174;-70
2023/12/23 01:46:54;;;;;;;;;;;18.10;65.20;;;;;;5064261;28;1436;-70
2023/12/23 01:49:20;;;;;;;;;;;18.10;65.20;;;;;;5064098;28;1248;-70
2023/12/23 01:51:46;;;;;;;;;;;18.10;65.30;;;;;;5060265;28;1363;-70
2023/12/23 01:54:12;;;;;;;;;;;18.10;65.30;;;;;;5079726;28;1382;-70
2023/12/23 01:56:37;;;;;;;;;;;18.10;65.30;;;;;;5045015;28;1371;-70
2023/12/23 01:59:03;;;;;;;;;;;18.10;66.00;;;;;;5059784;28;1537;-70
2023/12/23 02:01:29;;;;;;;;;;;18.10;65.30;;;;;;5046084;28;1327;-70
2023/12/23 02:03:55;;;;;;;;;;;18.10;65.30;;;;;;5060257;28;1953;-70
2023/12/23 02:06:20;;;;;;;;;;;18.10;65.30;;;;;;5058535;28;1550;-70
2023/12/23 02:08:45;;;;;;;;;;;18.10;65.30;;;;;;5061791;28;1140;-70
2023/12/23 02:11:12;;;;;;;;;;;18.10;65.30;;;;;;5059094;28;1314;-70
2023/12/23 02:13:41;;;;;;;;;;;18.10;65.30;;;;;;5094025;28;1440;-70
2023/12/23 02:16:06;;;;;;;;;;;18.10;65.30;;;;;;5090504;28;1570;-70
2023/12/23 02:18:32;;;;;;;;;;;18.10;65.30;;;;;;5092855;28;1403;-70
2023/12/23 02:20:57;;;;;;;;;;;18.10;65.30;;;;;;5058144;28;1359;-70
2023/12/23 02:23:22;;;;;;;;;;;18.10;65.40;;;;;;5059286;28;1902;-70
2023/12/23 02:25:52;;;;;;;;;;;18.10;65.30;;;;;;5093150;28;1261;-70
2023/12/23 02:28:17;;;;;;;;;;;18.10;65.30;;;;;;5096036;28;1287;-70
2023/12/23 02:30:43;;;;;;;;;;;18.10;65.40;;;;;;5090860;28;1483;-71
2023/12/23 02:33:08;;;;;;;;;;;18.00;65.30;;;;;;5090316;28;1342;-71
2023/12/23 02:35:34;;;;;;;;;;;18.10;65.40;;;;;;5094649;28;1402;-72
2023/12/23 02:37:59;;;;;;;;;;;18.10;65.40;;;;;;5060716;28;1164;-71
2023/12/23 02:40:25;;;;;;;;;;;18.10;65.40;;;;;;5044466;28;1488;-71
2023/12/23 02:42:50;;;;;;;;;;;18.10;65.40;;;;;;5058068;28;1902;-71
2023/12/23 02:45:15;;;;;;;;;;;18.10;65.40;;;;;;5057912;28;1277;-71
2023/12/23 02:47:41;;;;;;;;;;;18.00;65.30;;;;;;5059623;28;1310;-71
2023/12/23 02:50:07;;;;;;;;;;;18.00;65.30;;;;;;5059448;28;1382;-72
2023/12/23 02:52:32;;;;;;;;;;;18.00;65.40;;;;;;5056961;28;1314;-71
2023/12/23 02:54:57;;;;;;;;;;;18.00;65.40;;;;;;5059685;28;1366;-71
2023/12/23 02:57:23;;;;;;;;;;;18.00;65.40;;;;;;5060582;28;1242;-71
2023/12/23 02:59:48;;;;;;;;;;;18.00;65.40;;;;;;5089814;28;1549;-70
2023/12/23 03:02:14;;;;;;;;;;;18.10;65.50;;;;;;5056448;28;2005;-70
2023/12/23 03:04:39;;;;;;;;;;;18.00;65.40;;;;;;5059028;28;878;-71
2023/12/23 03:07:05;;;;;;;;;;;18.00;65.40;;;;;;5056746;28;1264;-70
2023/12/23 03:09:31;;;;;;;;;;;18.00;65.40;;;;;;5074582;28;1431;-70
2023/12/23 03:11:56;;;;;;;;;;;18.10;65.40;;;;;;5060903;28;1558;-70
2023/12/23 03:14:21;;;;;;;;;;;18.10;65.50;;;;;;5059537;28;1410;-71
2023/12/23 03:16:47;;;;;;;;;;;18.00;65.40;;;;;;5062373;28;1170;-71
2023/12/23 03:19:13;;;;;;;;;;;18.10;65.40;;;;;;5059140;28;1379;-71
2023/12/23 03:21:42;;;;;;;;;;;18.00;65.40;;;;;;5057244;28;1389;-71
2023/12/23 03:24:07;;;;;;;;;;;18.00;65.40;;;;;;5092519;28;1905;-71
2023/12/23 03:26:33;;;;;;;;;;;18.00;65.40;;;;;;5058281;28;1962;-70
2023/12/23 03:28:58;;;;;;;;;;;18.00;65.40;;;;;;5057157;28;1863;-71
2023/12/23 03:31:24;;;;;;;;;;;18.00;65.40;;;;;;5072861;28;1374;-70
2023/12/23 03:33:49;;;;;;;;;;;18.00;65.40;;;;;;5089555;28;1504;-69
2023/12/23 03:36:16;;;;;;;;;;;18.00;65.40;;;;;;5060775;28;1309;-70
2023/12/23 03:38:41;;;;;;;;;;;18.00;65.40;;;;;;5059126;28;1451;-69
2023/12/23 03:41:09;;;;;;;;;;;18.00;65.40;;;;;;5060667;28;1455;-69
2023/12/23 03:43:34;;;;;;;;;;;18.00;65.40;;;;;;5059826;28;1926;-68
2023/12/23 03:46:00;;;;;;;;;;;18.00;65.40;;;;;;5058930;28;1429;-67
2023/12/23 03:48:25;;;;;;;;;;;18.00;65.40;;;;;;5092965;28;1386;-70
2023/12/23 03:50:51;;;;;;;;;;;18.00;65.40;;;;;;5059313;28;1570;-70
2023/12/23 03:53:17;;;;;;;;;;;18.00;65.40;;;;;;5060892;28;1226;-70
2023/12/23 03:55:42;;;;;;;;;;;18.00;65.40;;;;;;5061628;28;1388;-68
2023/12/23 03:58:08;;;;;;;;;;;18.00;65.40;;;;;;5060530;28;1341;-68
2023/12/23 04:00:33;;;;;;;;;;;18.00;65.40;;;;;;5056736;28;1379;-69
2023/12/23 04:02:59;;;;;;;;;;;18.00;65.40;;;;;;5055817;28;1902;-69
2023/12/23 04:05:24;;;;;;;;;;;18.00;65.40;;;;;;5056880;28;1446;-70
2023/12/23 04:07:50;;;;;;;;;;;18.10;65.50;;;;;;5057772;28;1335;-70
2023/12/23 04:10:16;;;;;;;;;;;18.00;65.40;;;;;;5089502;28;1287;-70
2023/12/23 04:12:41;;;;;;;;;;;18.00;65.40;;;;;;5060603;28;1281;-70
2023/12/23 04:15:07;;;;;;;;;;;18.00;65.40;;;;;;5056177;28;1546;-69
2023/12/23 04:17:32;;;;;;;;;;;18.00;65.40;;;;;;5088694;28;1401;-68
2023/12/23 04:19:58;;;;;;;;;;;18.00;65.40;;;;;;5059968;28;1358;-70
2023/12/23 04:22:23;;;;;;;;;;;18.00;65.40;;;;;;5055929;28;1957;-70
2023/12/23 04:24:49;;;;;;;;;;;18.00;65.40;;;;;;5057060;28;973;-70
2023/12/23 04:27:14;;;;;;;;;;;18.00;65.40;;;;;;5058117;28;1252;-70
2023/12/23 04:29:40;;;;;;;;;;;18.10;65.50;;;;;;5060547;28;1585;-71
2023/12/23 04:32:05;;;;;;;;;;;18.10;65.50;;;;;;5059660;28;1334;-71
2023/12/23 04:34:31;;;;;;;;;;;18.00;65.40;;;;;;5065280;28;1575;-71
2023/12/23 04:36:56;;;;;;;;;;;18.00;65.40;;;;;;5061468;28;1505;-70
2023/12/23 04:39:22;;;;;;;;;;;18.00;65.40;;;;;;5061615;28;1352;-70
2023/12/23 04:41:48;;;;;;;;;;;18.00;65.50;;;;;;5062403;28;1373;-70
2023/12/23 04:44:14;;;;;;;;;;;18.00;65.40;;;;;;5059931;28;1906;-70
2023/12/23 04:46:39;;;;;;;;;;;18.00;65.40;;;;;;5090466;28;1321;-70
2023/12/23 04:49:05;;;;;;;;;;;18.00;65.40;;;;;;5060486;28;1237;-70
2023/12/23 04:51:30;;;;;;;;;;;18.00;65.40;;;;;;5061634;28;1362;-70
2023/12/23 04:53:56;;;;;;;;;;;18.00;65.40;;;;;;5061843;28;1308;-70
2023/12/23 04:56:22;;;;;;;;;;;18.00;65.50;;;;;;5061612;28;1260;-70
2023/12/23 04:58:48;;;;;;;;;;;18.00;65.40;;;;;;5060763;28;1166;-70
2023/12/23 05:01:13;;;;;;;;;;;18.00;65.40;;;;;;5063142;28;1331;-71
2023/12/23 05:03:39;;;;;;;;;;;18.00;65.50;;;;;;5061775;28;1987;-69
2023/12/23 05:06:05;;;;;;;;;;;18.00;65.40;;;;;;5078450;28;1449;-71
2023/12/23 05:08:32;;;;;;;;;;;18.00;65.40;;;;;;5075651;28;1309;-70
2023/12/23 05:10:58;;;;;;;;;;;18.00;65.50;;;;;;5061953;28;1371;-72
2023/12/23 05:13:23;;;;;;;;;;;18.00;65.40;;;;;;5058096;28;1168;-71
2023/12/23 05:15:49;;;;;;;;;;;18.00;65.40;;;;;;5060223;28;1438;-71
2023/12/23 05:18:15;;;;;;;;;;;18.10;65.40;;;;;;5093156;28;1392;-71
2023/12/23 05:20:40;;;;;;;;;;;18.10;65.40;;;;;;5058534;28;1328;-71
2023/12/23 05:23:05;;;;;;;;;;;18.10;65.30;;;;;;5093461;28;1957;-71
2023/12/23 05:25:31;;;;;;;;;;;18.10;65.20;;;;;;5061885;28;1486;-69
2023/12/23 05:27:56;;;;;;;;;;;18.10;65.10;;;;;;5061756;28;1399;-71
2023/12/23 05:30:22;;;;;;;;;;;18.10;65.00;;;;;;5062136;28;1362;-71
2023/12/23 05:32:47;;;;;;;;;;;18.20;65.00;;;;;;5046898;28;1420;-70
2023/12/23 05:35:13;;;;;;;;;;;18.20;64.90;;;;;;5061227;28;1267;-71
2023/12/23 05:37:38;;;;;;;;;;;18.20;64.80;;;;;;5060001;28;1474;-72
2023/12/23 05:40:05;;;;;;;;;;;18.20;64.70;;;;;;5062585;28;1390;-71
2023/12/23 05:42:30;;;;;;;;;;;18.20;64.60;;;;;;5060268;28;1898;-71
2023/12/23 05:44:56;;;;;;;;;;;18.30;64.70;;;;;;5062928;28;1383;-71
2023/12/23 05:47:21;;;;;;;;;;;18.20;64.50;;;;;;5058624;28;1326;-70
2023/12/23 05:49:47;;;;;;;;;;;18.30;64.50;;;;;;5058882;28;1303;-72
2023/12/23 05:52:12;;;;;;;;;;;18.30;64.40;;;;;;5093651;28;1489;-71
2023/12/23 05:54:38;;;;;;;;;;;18.30;64.30;;;;;;5063248;28;1344;-70
2023/12/23 05:57:03;;;;;;;;;;;18.30;64.30;;;;;;5060247;28;1193;-72
2023/12/23 05:59:29;;;;;;;;;;;18.30;64.20;;;;;;5058546;28;1343;-71
2023/12/23 06:01:54;;;;;;;;;;;18.40;64.20;;;;;;5062967;28;1554;-72
2023/12/23 06:04:20;;;;;;;;;;;18.40;64.20;;;;;;5057970;28;1898;-72
2023/12/23 06:06:45;;;;;;;;;;;18.40;64.10;;;;;;5058477;28;1343;-72
2023/12/23 06:09:11;;;;;;;;;;;18.40;64.10;;;;;;5083078;28;1322;-72
2023/12/23 06:11:36;;;;;;;;;;;18.40;64.00;;;;;;5057676;28;1564;-70
2023/12/23 06:14:02;;;;;;;;;;;18.40;64.80;;;;;;5058605;28;1239;-72
2023/12/23 06:16:28;;;;;;;;;;;18.40;64.00;;;;;;5090708;28;1064;-72
2023/12/23 06:18:53;;;;;;;;;;;18.50;64.00;;;;;;5057373;28;1434;-72
2023/12/23 06:21:19;;;;;;;;;;;18.50;64.00;;;;;;5057891;28;1500;-71
2023/12/23 06:23:44;;;;;;;;;;;18.50;63.90;;;;;;5064923;28;1971;-72
2023/12/23 06:26:10;;;;;;;;;;;18.50;64.00;;;;;;5055236;28;1266;-72
2023/12/23 06:28:36;;;;;;;;;;;18.50;63.90;;;;;;5058264;28;1247;-69
2023/12/23 06:31:01;;;;;;;;;;;18.50;63.90;;;;;;5060949;28;1525;-67
2023/12/23 06:33:27;;;;;;;;;;;18.40;63.80;;;;;;5059023;28;1349;-68
2023/12/23 06:35:52;;;;;;;;;;;18.40;63.80;;;;;;5061641;28;1328;-69
2023/12/23 06:38:18;;;;;;;;;;;18.50;63.80;;;;;;5060034;28;1421;-69
2023/12/23 06:40:43;;;;;;;;;;;18.50;63.80;;;;;;5057751;28;1425;-69
2023/12/23 06:43:09;;;;;;;;;;;18.50;63.80;;;;;;5058022;28;1961;-71
2023/12/23 06:45:34;;;;;;;;;;;18.50;63.80;;;;;;5092445;28;1448;-72
2023/12/23 06:48:00;;;;;;;;;;;18.40;63.80;;;;;;5058663;28;1437;-69
2023/12/23 06:50:25;;;;;;;;;;;18.40;63.80;;;;;;5056450;28;1546;-72
2023/12/23 06:52:51;;;;;;;;;;;18.40;63.80;;;;;;5055808;28;1440;-71
2023/12/23 06:55:16;;;;;;;;;;;18.40;63.80;;;;;;5059092;28;1349;-71
2023/12/23 06:57:42;;;;;;;;;;;18.40;63.80;;;;;;5058640;28;1457;-71
2023/12/23 07:00:07;;;;;;;;;;;18.40;63.90;;;;;;5059173;28;1279;-71
2023/12/23 07:02:33;;;;;;;;;;;18.40;63.90;;;;;;5058314;28;1938;-71
2023/12/23 07:04:59;;;;;;;;;;;18.40;63.90;;;;;;5061059;28;1447;-69
2023/12/23 07:07:24;;;;;;;;;;;18.40;64.00;;;;;;5058138;28;1285;-70
2023/12/23 07:09:50;;;;;;;;;;;18.40;64.00;;;;;;5088274;28;1368;-71
2023/12/23 07:12:15;;;;;;;;;;;18.40;64.00;;;;;;5057371;28;1306;-70
2023/12/23 07:14:41;;;;;;;;;;;18.40;64.00;;;;;;5058384;28;1311;-70
2023/12/23 07:17:06;;;;;;;;;;;18.40;64.10;;;;;;5058391;28;1018;-69
2023/12/23 07:19:32;;;;;;;;;;;18.40;64.10;;;;;;5059693;28;1053;-70
2023/12/23 07:21:57;;;;;;;;;;;18.40;64.10;;;;;;5057405;28;1305;-69
2023/12/23 07:24:23;;;;;;;;;;;18.40;64.10;;;;;;5092585;28;1905;-69
2023/12/23 07:26:48;;;;;;;;;;;18.30;64.10;;;;;;5057585;28;1230;-68
2023/12/23 07:29:14;;;;;;;;;;;18.30;64.10;;;;;;5060196;28;1126;-69
2023/12/23 07:31:39;;;;;;;;;;;18.30;64.20;;;;;;5057661;28;1381;-69
2023/12/23 07:34:05;;;;;;;;;;;18.30;64.20;;;;;;5090233;28;1391;-68
2023/12/23 07:36:30;;;;;;;;;;;18.30;64.20;;;;;;5055619;28;2231;-69
2023/12/23 07:38:56;;;;;;;;;;;18.30;64.20;;;;;;5049773;28;1862;-69
2023/12/23 07:41:21;;;;;;;;;;;18.30;64.30;;;;;;5056382;28;1371;-69
2023/12/23 07:43:47;;;;;;;;;;;18.30;64.30;;;;;;5058323;28;1906;-70
2023/12/23 07:46:12;;;;;;;;;;;18.30;64.30;;;;;;5088002;28;1362;-70
2023/12/23 07:48:38;;;;;;;;;;;18.30;64.30;;;;;;5058065;28;1303;-71
2023/12/23 07:51:06;;;;;;;;;;;18.30;64.40;;;;;;5057252;28;1554;-71
2023/12/23 07:53:32;;;;;;;;;;;18.30;64.40;;;;;;5059259;28;1455;-71
2023/12/23 07:55:57;;;;;;;;;;;18.30;64.40;;;;;;5089483;28;1539;-71
2023/12/23 07:58:23;;;;;;;;;;;18.30;64.40;;;;;;5057731;28;1332;-70
2023/12/23 08:00:48;;;;;;;;;;;18.30;64.50;;;;;;5057343;28;1960;-72
2023/12/23 08:03:14;;;;;;;;;;;18.30;64.50;;;;;;5056468;28;1965;-71
2023/12/23 08:05:39;;;;;;;;;;;18.20;64.40;;;;;;5056071;28;1191;-70
2023/12/23 08:08:06;;;;;;;;;;;18.20;64.50;;;;;;5055426;28;1526;-69
2023/12/23 08:10:32;;;;;;;;;;;18.20;64.50;;;;;;5058710;28;1292;-69
2023/12/23 08:12:57;;;;;;;;;;;18.20;64.50;;;;;;5089389;28;1776;-69
2023/12/23 08:15:23;;;;;;;;;;;18.20;64.60;;;;;;5089577;28;1262;-69
2023/12/23 08:17:49;;;;;;;;;;;18.20;64.60;;;;;;5089530;28;1168;-69
2023/12/23 08:20:15;;;;;;;;;;;18.20;64.60;;;;;;5055210;28;1398;-69
2023/12/23 08:22:41;;;;;;;;;;;18.20;64.70;;;;;;5058218;28;1965;-69
2023/12/23 08:25:07;;;;;;;;;;;18.20;64.70;;;;;;5089555;28;1538;-69
2023/12/23 08:27:32;;;;;;;;;;;18.20;64.60;;;;;;5056886;28;1490;-70
2023/12/23 08:29:58;;;;;;;;;;;18.20;64.70;;;;;;5055820;28;1378;-69
2023/12/23 08:32:23;;;;;;;;;;;18.20;64.70;;;;;;5056390;28;1360;-68
2023/12/23 08:34:48;;;;;;;;;;;18.20;64.70;;;;;;5061305;28;1326;-68
2023/12/23 08:37:14;;;;;;;;;;;18.20;64.70;;;;;;5057730;28;1425;-68
2023/12/23 08:39:39;;;;;;;;;;;18.20;64.70;;;;;;5059349;28;1222;-67
2023/12/23 08:42:05;;;;;;;;;;;18.20;64.70;;;;;;5058912;28;1290;-68
2023/12/23 08:44:30;;;;;;;;;;;18.20;64.70;;;;;;5091097;28;1906;-69
2023/12/23 08:46:56;;;;;;;;;;;18.20;64.70;;;;;;5060105;28;1797;-68
2023/12/23 08:49:21;;;;;;;;;;;18.20;64.70;;;;;;5059541;28;1281;-68
2023/12/23 08:51:47;;;;;;;;;;;18.20;64.70;;;;;;5059135;28;1325;-69
2023/12/23 08:54:12;;;;;;;;;;;18.20;64.70;;;;;;5058560;28;1144;-68
2023/12/23 08:56:38;;;;;;;;;;;18.20;64.60;;;;;;5056051;28;1590;-67
2023/12/23 08:59:03;;;;;;;;;;;18.20;64.60;;;;;;5054073;28;1009;-69
2023/12/23 09:01:29;;;;;;;;;;;18.20;64.60;;;;;;5055370;28;1550;-70
2023/12/23 09:03:54;;;;;;;;;;;18.30;64.50;;;;;;5054091;28;1961;-70
2023/12/23 09:06:20;;;;;;;;;;;18.30;64.50;;;;;;5055671;28;1085;-70
2023/12/23 09:08:45;;;;;;;;;;;18.30;64.50;;;;;;5092483;28;1608;-69
2023/12/23 09:11:11;;;;;;;;;;;18.30;64.40;;;;;;5058690;28;1463;-71
2023/12/23 09:13:36;;;;;;;;;;;18.30;64.40;;;;;;5057449;28;1328;-71
2023/12/23 09:16:03;;;;;;;;;;;18.30;64.40;;;;;;5090342;28;1393;-70
2023/12/23 09:18:28;;;;;;;;;;;18.30;64.30;;;;;;5093830;28;1492;-71
2023/12/23 09:20:54;;;;;;;;;;;18.30;64.30;;;;;;5058147;28;1575;-69
2023/12/23 09:23:19;;;;;;;;;;;18.30;64.20;;;;;;5060054;28;1910;-70
2023/12/23 09:25:45;;;;;;;;;;;18.30;64.30;;;;;;5094288;28;1406;-71
2023/12/23 09:28:10;;;;;;;;;;;18.30;64.20;;;;;;5059965;28;1295;-70
2023/12/23 09:30:36;;;;;;;;;;;18.30;64.20;;;;;;5059564;28;1433;-69
2023/12/23 09:33:01;;;;;;;;;;;18.30;64.20;;;;;;5063626;28;1296;-71
2023/12/23 09:35:27;;;;;;;;;;;18.30;64.20;;;;;;5059343;28;1305;-71
2023/12/23 09:37:52;;;;;;;;;;;18.30;64.10;;;;;;5091584;28;1853;-70
2023/12/23 09:40:17;;;;;;;;;;;18.30;64.10;;;;;;5059803;28;1807;-71
2023/12/23 09:42:43;;;;;;;;;;;18.30;64.10;;;;;;5060657;28;1938;-71
2023/12/23 09:45:09;;;;;;;;;;;18.30;64.10;;;;;;5059287;28;1388;-71
2023/12/23 09:47:34;;;;;;;;;;;18.30;64.00;;;;;;5088922;28;1414;-70
2023/12/23 09:50:00;;;;;;;;;;;18.40;64.10;;;;;;5092942;28;1320;-71
2023/12/23 09:52:25;;;;;;;;;;;18.40;64.10;;;;;;5091143;28;1549;-71
2023/12/23 09:54:51;;;;;;;;;;;18.40;64.10;;;;;;5093949;28;1277;-71
2023/12/23 09:57:16;;;;;;;;;;;18.40;64.00;;;;;;5059691;28;1380;-70
2023/12/23 09:59:42;;;;;;;;;;;18.40;64.00;;;;;;5057813;28;1371;-69
2023/12/23 10:02:07;;;;;;;;;;;18.40;64.00;;;;;;5057990;28;1503;-72
2023/12/23 10:04:33;;;;;;;;;;;18.40;64.00;;;;;;5058615;28;1902;-71
2023/12/23 10:06:58;;;;;;;;;;;18.40;63.90;;;;;;5080041;28;1649;-71
2023/12/23 10:09:25;;;;;;;;;;;18.40;63.90;;;;;;5091818;28;1294;-72
2023/12/23 10:11:50;;;;;;;;;;;18.40;63.90;;;;;;5059279;28;1447;-72
2023/12/23 10:14:18;;;;;;;;;;;18.40;63.90;;;;;;5060049;28;1334;-71
2023/12/23 10:16:44;;;;;;;;;;;18.40;63.90;;;;;;5060123;28;1445;-72
2023/12/23 10:19:09;;;;;;;;;;;18.40;63.90;;;;;;5060889;28;1331;-70
2023/12/23 10:21:35;;;;;;;;;;;18.40;63.90;;;;;;5093490;28;1450;-71
2023/12/23 10:24:00;;;;;;;;;;;18.40;63.90;;;;;;5062958;28;2033;-71
2023/12/23 10:26:26;;;;;;;;;;;18.40;63.80;;;;;;5062255;28;1314;-71
2023/12/23 10:28:53;;;;;;;;;;;18.40;63.80;;;;;;5060060;28;1272;-70
2023/12/23 10:31:19;;;;;;;;;;;18.40;63.80;;;;;;5060139;28;1519;-71
2023/12/23 10:33:44;;;;;;;;;;;18.40;63.80;;;;;;5078637;28;1402;-71
2023/12/23 10:36:11;;;;;;;;;;;18.40;63.80;;;;;;5093657;28;1355;-71
2023/12/23 10:38:36;;;;;;;;;;;18.40;63.70;;;;;;5057643;28;2165;-71
2023/12/23 10:41:12;;;;;;;;;;;18.40;63.70;;;;;;5061919;28;1407;-71
2023/12/23 10:43:37;;;;;;;;;;;18.50;63.80;;;;;;5089957;28;1953;-72
2023/12/23 10:46:03;;;;;;;;;;;18.50;63.70;;;;;;5061684;28;914;-69
2023/12/23 10:48:28;;;;;;;;;;;18.50;63.70;;;;;;5059134;28;1318;-68
2023/12/23 10:50:55;;;;;;;;;;;18.40;63.60;;;;;;5060782;28;1502;-71
2023/12/23 10:53:20;;;;;;;;;;;18.50;63.70;;;;;;5088858;28;1530;-70
2023/12/23 10:55:46;;;;;;;;;;;18.50;63.70;;;;;;5058134;28;1423;-71
2023/12/23 10:58:12;;;;;;;;;;;18.50;63.70;;;;;;5091432;28;1284;-70
2023/12/23 11:00:38;;;;;;;;;;;18.40;63.60;;;;;;5089018;28;1349;-70
2023/12/23 11:03:03;;;;;;;;;;;18.50;63.70;;;;;;5059103;28;1906;-71
2023/12/23 11:05:29;;;;;;;;;;;18.50;63.70;;;;;;5092722;28;1273;-70
2023/12/23 11:07:54;;;;;;;;;;;18.50;63.70;;;;;;5057575;28;1423;-69
2023/12/23 11:10:20;;;;;;;;;;;18.50;63.60;;;;;;5090870;28;1382;-71
2023/12/23 11:12:45;;;;;;;;;;;18.50;64.40;;;;;;5058838;28;1702;-71
2023/12/23 11:15:11;;;;;;;;;;;18.50;63.60;;;;;;5072989;28;1543;-70
2023/12/23 11:17:40;;;;;;;;;;;18.50;63.60;;;;;;5087599;28;1415;-68
2023/12/23 11:20:09;;;;;;;;;;;18.50;63.60;;;;;;5058651;28;1390;-70
2023/12/23 11:22:38;;;;;;;;;;;18.50;63.60;;;;;;5057310;28;1906;-71
2023/12/23 11:25:04;;;;;;;;;;;18.50;63.60;;;;;;5047268;28;1207;-69
2023/12/23 11:27:36;;;;;;;;;;;18.50;63.60;;;;;;5060439;28;1162;-69
2023/12/23 11:30:02;;;;;;;;;;;18.50;63.60;;;;;;5091670;28;1604;-71
2023/12/23 11:32:33;;;;;;;;;;;18.50;63.60;;;;;;5057119;28;1512;-71
2023/12/23 11:34:58;;;;;;;;;;;18.50;63.60;;;;;;5086868;28;1467;-71
2023/12/23 11:37:38;;;;;;;;;;;18.50;63.60;;;;;;5056321;28;1595;-70
2023/12/23 11:40:04;;;;;;;;;;;18.50;63.60;;;;;;5090989;28;1319;-69
2023/12/23 11:42:30;;;;;;;;;;;18.50;63.60;;;;;;5054889;28;1894;-69
2023/12/23 11:44:55;;;;;;;;;;;18.50;63.60;;;;;;5092967;28;1447;-69
2023/12/23 11:47:21;;;;;;;;;;;18.50;63.60;;;;;;5057501;28;1610;-68
2023/12/23 11:49:46;;;;;;;;;;;18.50;63.60;;;;;;5054934;28;1369;-69
2023/12/23 11:52:12;;;;;;;;;;;18.50;63.60;;;;;;5088263;28;1474;-70
2023/12/23 11:54:37;;;;;;;;;;;18.50;63.60;;;;;;5058767;28;1581;-70
2023/12/23 11:57:05;;;;;;;;;;;18.50;63.60;;;;;;5088570;28;1289;-72
2023/12/23 11:59:31;;;;;;;;;;;18.50;63.70;;;;;;5055422;28;2203;-70
2023/12/23 12:01:56;;;;;;;;;;;18.50;63.70;;;;;;5049313;28;4522;-70
2023/12/23 12:04:23;;;;;;;;;;;18.50;63.70;;;;;;5056562;28;1910;-70
2023/12/23 12:06:48;;;;;;;;;;;18.50;63.70;;;;;;5056878;28;1715;-69
2023/12/23 12:09:13;;;;;;;;;;;18.40;63.60;;;;;;5058117;28;1311;-70
2023/12/23 12:11:39;;;;;;;;;;;18.50;63.70;;;;;;5056119;28;1741;-70
2023/12/23 12:14:06;;;;;;;;;;;18.50;63.70;;;;;;5089162;28;1481;-70
2023/12/23 12:16:31;;;;;;;;;;;18.50;63.70;;;;;;5053267;28;1373;-69
2023/12/23 12:18:57;;;;;;;;;;;18.50;63.70;;;;;;5053420;28;1469;-70
2023/12/23 12:21:22;;;;;;;;;;;18.50;63.70;;;;;;5055175;28;1410;-70
2023/12/23 12:23:48;;;;;;;;;;;18.50;63.70;;;;;;5057300;28;1894;-70
2023/12/23 12:26:13;;;;;;;;;;;18.50;63.80;;;;;;5054558;28;1367;-69
2023/12/23 12:28:39;;;;;;;;;;;18.50;63.70;;;;;;5056095;28;1585;-70
2023/12/23 12:31:07;;;;;;;;;;;18.50;63.80;;;;;;5057581;28;1244;-69
2023/12/23 12:33:35;;;;;;;;;;;18.40;63.70;;;;;;5058307;28;1338;-69
2023/12/23 12:36:00;;;;;;;;;;;18.40;63.70;;;;;;5055923;28;1438;-69
2023/12/23 12:38:26;;;;;;;;;;;18.50;63.90;;;;;;5058759;28;2158;-69
2023/12/23 12:40:51;;;;;;;;;;;18.50;63.90;;;;;;5088953;28;1906;-69
2023/12/23 12:43:17;;;;;;;;;;;18.50;63.80;;;;;;5093347;28;1894;-70
2023/12/23 12:45:42;;;;;;;;;;;18.50;63.80;;;;;;5059512;28;1461;-72
2023/12/23 12:48:08;;;;;;;;;;;18.50;63.80;;;;;;5088685;28;2009;-71
2023/12/23 12:50:33;;;;;;;;;;;18.50;63.80;;;;;;5089655;28;2606;-71
2023/12/23 12:53:01;;;;;;;;;;;18.50;63.80;;;;;;5062379;28;2050;-72
2023/12/23 12:55:27;;;;;;;;;;;18.50;63.80;;;;;;5093186;28;1910;-71
2023/12/23 12:57:52;;;;;;;;;;;18.50;63.80;;;;;;5095375;28;1370;-71
2023/12/23 13:00:18;;;;;;;;;;;18.50;63.70;;;;;;5060024;28;1288;-71
2023/12/23 13:02:43;;;;;;;;;;;18.50;63.60;;;;;;5059653;28;2149;-72
2023/12/23 13:05:09;;;;;;;;;;;18.60;63.60;;;;;;5060125;28;1478;-71
2023/12/23 13:07:34;;;;;;;;;;;18.60;63.60;;;;;;5063415;28;1465;-71
2023/12/23 13:10:00;;;;;;;;;;;18.60;63.60;;;;;;5059238;28;1849;-70
2023/12/23 13:12:26;;;;;;;;;;;18.60;63.50;;;;;;5058539;28;1327;-71
2023/12/23 13:14:52;;;;;;;;;;;18.60;63.50;;;;;;5063232;28;1742;-72
2023/12/23 13:17:17;;;;;;;;;;;18.60;63.40;;;;;;5058036;28;2217;-70
2023/12/23 13:19:43;;;;;;;;;;;18.60;63.40;;;;;;5059146;28;1410;-70
2023/12/23 13:22:08;;;;;;;;;;;18.60;63.40;;;;;;5058328;28;1299;-70
2023/12/23 13:24:34;;;;;;;;;;;18.60;63.30;;;;;;5062878;28;1906;-71
2023/12/23 13:26:59;;;;;;;;;;;18.60;63.30;;;;;;5063161;28;1237;-70
2023/12/23 13:29:25;;;;;;;;;;;18.60;63.30;;;;;;5059067;28;1380;-70
2023/12/23 13:31:50;;;;;;;;;;;18.60;63.30;;;;;;5093077;28;1448;-68
2023/12/23 13:34:16;;;;;;;;;;;18.60;63.30;;;;;;5059819;28;1291;-69
2023/12/23 13:36:41;;;;;;;;;;;18.60;63.20;;;;;;5062339;28;1598;-70
2023/12/23 13:39:07;;;;;;;;;;;18.60;63.20;;;;;;5061477;28;1341;-70
2023/12/23 13:41:32;;;;;;;;;;;18.60;63.10;;;;;;5093071;28;1287;-69
2023/12/23 13:43:58;;;;;;;;;;;18.70;63.20;;;;;;5061744;28;1902;-70
2023/12/23 13:46:23;;;;;;;;;;;18.70;63.20;;;;;;5061029;28;1186;-68
2023/12/23 13:48:49;;;;;;;;;;;18.70;63.10;;;;;;5090770;28;1334;-70
2023/12/23 13:51:14;;;;;;;;;;;18.70;63.10;;;;;;5056997;28;1363;-70
2023/12/23 13:53:40;;;;;;;;;;;18.60;63.00;;;;;;5059508;28;1339;-70
2023/12/23 13:56:08;;;;;;;;;;;18.70;63.10;;;;;;5062049;28;1289;-69
2023/12/23 13:58:36;;;;;;;;;;;18.70;63.00;;;;;;5057664;28;1269;-68
2023/12/23 14:01:02;;;;;;;;;;;18.70;63.00;;;;;;5057291;28;2154;-69
2023/12/23 14:03:27;;;;;;;;;;;18.70;63.00;;;;;;5073803;28;2031;-69
2023/12/23 14:05:53;;;;;;;;;;;18.70;62.90;;;;;;5061656;28;1482;-69
2023/12/23 14:08:18;;;;;;;;;;;18.70;62.90;;;;;;5062366;28;1359;-70
2023/12/23 14:10:45;;;;;;;;;;;18.70;62.80;;;;;;5091810;28;1370;-70
2023/12/23 14:13:10;;;;;;;;;;;18.70;62.80;;;;;;5092663;28;1582;-70
2023/12/23 14:15:36;;;;;;;;;;;18.70;62.80;;;;;;5060100;28;1478;-70
2023/12/23 14:18:03;;;;;;;;;;;18.70;62.80;;;;;;5091074;28;1461;-70
2023/12/23 14:20:28;;;;;;;;;;;18.70;62.80;;;;;;5058696;28;1440;-70